Time;durP1;ratioP1;P1;durP2;ratioP2;P2;SDS_P1;SDS_P2;PMS_P1;PMS_P2;Temp;Humidity;BMP_temperature;BMP_pressure;BME280_temperature;BME280_humidity;BME280_pressure;Samples;Min_cycle;Max_cycle;Signal;HPM_P1;HPM_P2
2020/12/11 00:01:35;;;;;;;;;;;4.90;99.90;;;;;;5083030;28;20515;-77
2020/12/11 00:04:01;;;;;;;;;;;5.00;99.90;;;;;;5089933;28;19999;-77
2020/12/11 00:06:27;;;;;;;;;;;5.30;99.90;;;;;;5101010;28;19907;-76
2020/12/11 00:08:52;;;;;;;;;;;5.10;99.90;;;;;;5089914;28;20288;-76
2020/12/11 00:11:24;;;;;;;;;;;5.40;99.90;;;;;;5100277;28;20040;-77
2020/12/11 00:13:50;;;;;;;;;;;5.60;99.90;;;;;;5089578;28;19964;-76
2020/12/11 00:16:15;;;;;;;;;;;5.40;99.90;;;;;;5099551;28;20006;-77
2020/12/11 00:18:41;;;;;;;;;;;5.60;99.90;;;;;;5090041;28;20247;-76
2020/12/11 00:21:06;;;;;;;;;;;5.60;99.90;;;;;;5098711;28;19992;-76
2020/12/11 00:23:32;;;;;;;;;;;5.50;99.90;;;;;;5091630;28;19908;-77
2020/12/11 00:26:00;;;;;;;;;;;5.40;99.90;;;;;;5097184;28;20245;-77
2020/12/11 00:28:29;;;;;;;;;;;5.50;99.90;;;;;;5092456;28;19907;-77
2020/12/11 00:30:55;;;;;;;;;;;5.50;99.90;;;;;;5098570;27;19907;-77
2020/12/11 00:33:21;;;;;;;;;;;5.60;99.90;;;;;;5074499;28;20019;-77
2020/12/11 00:35:47;;;;;;;;;;;5.50;99.90;;;;;;5095621;28;19990;-77
2020/12/11 00:38:12;;;;;;;;;;;5.50;99.90;;;;;;5094164;28;19907;-76
2020/12/11 00:40:38;;;;;;;;;;;5.50;99.90;;;;;;5094066;28;20305;-76
2020/12/11 00:43:03;;;;;;;;;;;5.60;99.90;;;;;;5109496;28;19988;-77
2020/12/11 00:45:29;;;;;;;;;;;5.60;99.90;;;;;;5102364;28;19916;-77
2020/12/11 00:47:54;;;;;;;;;;;5.60;99.90;;;;;;5096445;28;20000;-76
2020/12/11 00:50:20;;;;;;;;;;;5.60;99.90;;;;;;5091345;28;19908;-77
2020/12/11 00:52:45;;;;;;;;;;;5.80;99.90;;;;;;5097477;28;19912;-76
2020/12/11 00:55:11;;;;;;;;;;;5.60;99.90;;;;;;5091252;28;19912;-76
2020/12/11 00:57:36;;;;;;;;;;;5.70;99.90;;;;;;5097736;28;20563;-76
2020/12/11 01:00:04;;;;;;;;;;;5.70;99.90;;;;;;5090919;28;20486;-76
2020/12/11 01:02:29;;;;;;;;;;;5.70;99.90;;;;;;5101979;27;19908;-76
2020/12/11 01:04:55;;;;;;;;;;;5.80;99.90;;;;;;5090713;28;19904;-76
2020/12/11 01:07:21;;;;;;;;;;;5.70;99.90;;;;;;5097528;28;19908;-76
2020/12/11 01:09:46;;;;;;;;;;;5.60;99.90;;;;;;5090681;28;19911;-75
2020/12/11 01:12:12;;;;;;;;;;;5.70;99.90;;;;;;5097406;28;19912;-76
2020/12/11 01:14:37;;;;;;;;;;;5.80;99.90;;;;;;5089067;28;20017;-76
2020/12/11 01:17:03;;;;;;;;;;;5.70;99.90;;;;;;5080403;28;19980;-76
2020/12/11 01:19:28;;;;;;;;;;;5.80;99.90;;;;;;5088412;28;20099;-76
2020/12/11 01:21:54;;;;;;;;;;;5.70;99.90;;;;;;5099184;28;19914;-76
2020/12/11 01:24:19;;;;;;;;;;;5.70;99.90;;;;;;5088001;28;19904;-76
2020/12/11 01:26:45;;;;;;;;;;;5.80;99.90;;;;;;5089022;28;19908;-76
2020/12/11 01:29:11;;;;;;;;;;;5.70;99.90;;;;;;5110192;28;19904;-76
2020/12/11 01:31:36;;;;;;;;;;;5.70;99.90;;;;;;5102443;28;20370;-77
2020/12/11 01:34:02;;;;;;;;;;;5.60;99.90;;;;;;5088238;28;20352;-76
2020/12/11 01:36:27;;;;;;;;;;;5.60;99.90;;;;;;5090523;28;19904;-76
2020/12/11 01:38:53;;;;;;;;;;;5.50;99.90;;;;;;5091935;28;19907;-76
2020/12/11 01:41:19;;;;;;;;;;;5.50;99.90;;;;;;5102071;28;19903;-76
2020/12/11 01:43:45;;;;;;;;;;;5.20;99.90;;;;;;5088299;28;19912;-76
2020/12/11 01:46:20;;;;;;;;;;;5.30;99.90;;;;;;5097625;28;19914;-76
2020/12/11 01:48:45;;;;;;;;;;;5.20;99.90;;;;;;5088843;28;19904;-76
2020/12/11 01:51:14;;;;;;;;;;;5.20;99.90;;;;;;5097715;28;19926;-76
2020/12/11 01:53:43;;;;;;;;;;;5.20;99.90;;;;;;5089546;28;19919;-76
2020/12/11 01:56:10;;;;;;;;;;;5.10;99.90;;;;;;5097388;28;19908;-77
2020/12/11 01:58:37;;;;;;;;;;;5.20;99.90;;;;;;5089867;28;20363;-76
2020/12/11 02:01:03;;;;;;;;;;;5.40;99.90;;;;;;5112141;28;19911;-76
2020/12/11 02:03:29;;;;;;;;;;;5.50;99.90;;;;;;5090773;28;19904;-76
2020/12/11 02:05:54;;;;;;;;;;;5.40;99.90;;;;;;5095284;28;20333;-76
2020/12/11 02:08:20;;;;;;;;;;;5.30;99.90;;;;;;5108459;28;19912;-76
2020/12/11 02:10:46;;;;;;;;;;;5.30;99.90;;;;;;5101514;28;19915;-76
2020/12/11 02:13:12;;;;;;;;;;;5.30;99.90;;;;;;5093336;28;19987;-76
2020/12/11 02:15:37;;;;;;;;;;;5.30;99.90;;;;;;5092559;28;19996;-76
2020/12/11 02:18:03;;;;;;;;;;;5.50;99.90;;;;;;5094441;28;19916;-76
2020/12/11 02:20:29;;;;;;;;;;;5.50;99.90;;;;;;5091388;28;19951;-76
2020/12/11 02:22:54;;;;;;;;;;;5.60;99.90;;;;;;5095663;28;19919;-76
2020/12/11 02:25:20;;;;;;;;;;;5.60;99.90;;;;;;5090127;28;19987;-76
2020/12/11 02:27:47;;;;;;;;;;;5.60;99.90;;;;;;5099199;28;20004;-76
2020/12/11 02:30:13;;;;;;;;;;;5.50;99.90;;;;;;5102743;28;19908;-76
2020/12/11 02:32:38;;;;;;;;;;;5.60;99.90;;;;;;5098874;28;19919;-76
2020/12/11 02:35:04;;;;;;;;;;;5.50;99.90;;;;;;5089638;28;19968;-76
2020/12/11 02:37:29;;;;;;;;;;;5.40;99.90;;;;;;5099290;28;19950;-76
2020/12/11 02:39:55;;;;;;;;;;;5.50;99.90;;;;;;5105658;28;19915;-76
2020/12/11 02:42:20;;;;;;;;;;;5.60;99.90;;;;;;5099853;28;19904;-76
2020/12/11 02:44:46;;;;;;;;;;;5.50;99.90;;;;;;5092834;28;19926;-76
2020/12/11 02:47:15;;;;;;;;;;;5.50;99.90;;;;;;5100361;28;19914;-76
2020/12/11 02:49:40;;;;;;;;;;;5.50;99.90;;;;;;5092242;28;19908;-77
2020/12/11 02:52:06;;;;;;;;;;;5.60;99.90;;;;;;5106536;28;19914;-76
2020/12/11 02:54:31;;;;;;;;;;;5.50;99.90;;;;;;5109459;28;19904;-76
2020/12/11 02:56:57;;;;;;;;;;;5.60;99.90;;;;;;5102214;28;20255;-76
2020/12/11 02:59:22;;;;;;;;;;;5.70;99.90;;;;;;5090778;28;20456;-76
2020/12/11 03:01:48;;;;;;;;;;;5.70;99.90;;;;;;5102348;28;19994;-76
2020/12/11 03:04:14;;;;;;;;;;;5.80;99.90;;;;;;5090937;28;19956;-76
2020/12/11 03:06:39;;;;;;;;;;;5.90;99.90;;;;;;5102151;28;19915;-76
2020/12/11 03:09:05;;;;;;;;;;;5.80;99.90;;;;;;5090793;28;19911;-76
2020/12/11 03:11:30;;;;;;;;;;;6.00;99.90;;;;;;5102019;28;19995;-77
2020/12/11 03:13:56;;;;;;;;;;;5.90;99.90;;;;;;5090554;28;20385;-76
2020/12/11 03:16:22;;;;;;;;;;;5.90;99.90;;;;;;5101594;28;19907;-76
2020/12/11 03:18:48;;;;;;;;;;;5.90;99.90;;;;;;5090910;28;19991;-76
2020/12/11 03:21:13;;;;;;;;;;;5.80;99.90;;;;;;5100201;28;19961;-76
2020/12/11 03:23:39;;;;;;;;;;;5.80;99.90;;;;;;5092281;28;20414;-75
2020/12/11 03:26:05;;;;;;;;;;;5.80;99.90;;;;;;5098694;28;19930;-75
2020/12/11 03:28:31;;;;;;;;;;;5.80;99.90;;;;;;5093373;28;19920;-75
2020/12/11 03:30:56;;;;;;;;;;;6.00;99.90;;;;;;5100569;27;19957;-75
2020/12/11 03:33:22;;;;;;;;;;;5.80;99.90;;;;;;5075822;28;19916;-76
2020/12/11 03:35:47;;;;;;;;;;;5.90;99.90;;;;;;5096234;28;19911;-76
2020/12/11 03:38:13;;;;;;;;;;;5.90;99.90;;;;;;5095556;28;20282;-75
2020/12/11 03:40:38;;;;;;;;;;;5.80;99.90;;;;;;5094963;28;20327;-76
2020/12/11 03:43:04;;;;;;;;;;;5.70;99.90;;;;;;5096848;28;19904;-76
2020/12/11 03:45:30;;;;;;;;;;;5.80;99.90;;;;;;5093011;28;20260;-76
2020/12/11 03:47:55;;;;;;;;;;;5.80;99.90;;;;;;5098078;28;19957;-75
2020/12/11 03:50:21;;;;;;;;;;;5.80;99.90;;;;;;5092344;28;20049;-75
2020/12/11 03:52:46;;;;;;;;;;;5.80;99.90;;;;;;5097733;28;19942;-75
2020/12/11 03:55:12;;;;;;;;;;;5.90;99.90;;;;;;5092370;28;19934;-75
2020/12/11 03:57:37;;;;;;;;;;;5.90;99.90;;;;;;5103030;28;19960;-75
2020/12/11 04:00:03;;;;;;;;;;;5.90;99.90;;;;;;5105852;28;20417;-74
2020/12/11 04:02:29;;;;;;;;;;;5.90;99.90;;;;;;5108493;28;19919;-75
2020/12/11 04:04:54;;;;;;;;;;;5.80;99.90;;;;;;5088522;28;19916;-74
2020/12/11 04:07:20;;;;;;;;;;;5.90;99.90;;;;;;5101169;28;19907;-75
2020/12/11 04:09:46;;;;;;;;;;;5.60;99.90;;;;;;5107841;28;19915;-75
2020/12/11 04:12:11;;;;;;;;;;;5.60;99.90;;;;;;5099401;28;20061;-74
2020/12/11 04:14:37;;;;;;;;;;;5.50;99.90;;;;;;5102015;28;19935;-74
2020/12/11 04:17:02;;;;;;;;;;;5.70;99.90;;;;;;5100579;28;19920;-74
2020/12/11 04:19:28;;;;;;;;;;;5.60;99.90;;;;;;5107394;28;19929;-74
2020/12/11 04:21:54;;;;;;;;;;;5.60;99.90;;;;;;5118257;27;19936;-74
2020/12/11 04:24:20;;;;;;;;;;;5.60;99.90;;;;;;5109164;28;19926;-74
2020/12/11 04:26:46;;;;;;;;;;;5.60;99.90;;;;;;5097826;28;19904;-75
2020/12/11 04:29:11;;;;;;;;;;;5.50;99.90;;;;;;5109734;28;19972;-74
2020/12/11 04:31:37;;;;;;;;;;;5.70;99.90;;;;;;5105144;27;20419;-74
2020/12/11 04:34:02;;;;;;;;;;;5.50;99.90;;;;;;5089232;28;20371;-74
2020/12/11 04:36:28;;;;;;;;;;;5.70;99.90;;;;;;5100697;28;19919;-74
2020/12/11 04:38:54;;;;;;;;;;;5.70;99.90;;;;;;5089228;28;19904;-75
2020/12/11 04:41:20;;;;;;;;;;;5.80;99.90;;;;;;5080886;28;19967;-74
2020/12/11 04:43:49;;;;;;;;;;;5.80;99.90;;;;;;5108969;28;19916;-74
2020/12/11 04:46:15;;;;;;;;;;;5.90;99.90;;;;;;5103397;28;20279;-74
2020/12/11 04:48:40;;;;;;;;;;;5.90;99.90;;;;;;5108939;28;19904;-74
2020/12/11 04:51:06;;;;;;;;;;;6.10;99.90;;;;;;5102828;28;20470;-74
2020/12/11 04:53:36;;;;;;;;;;;6.10;99.90;;;;;;5073570;28;20234;-75
2020/12/11 04:56:02;;;;;;;;;;;6.20;99.90;;;;;;5102679;28;19963;-74
2020/12/11 04:58:29;;;;;;;;;;;6.30;99.90;;;;;;5090563;28;19923;-75
2020/12/11 05:00:55;;;;;;;;;;;6.50;99.90;;;;;;5102688;28;20373;-75
2020/12/11 05:03:21;;;;;;;;;;;6.40;99.90;;;;;;5093136;28;19991;-75
2020/12/11 05:05:47;;;;;;;;;;;6.50;99.90;;;;;;5094450;28;20279;-75
2020/12/11 05:08:19;;;;;;;;;;;6.60;99.90;;;;;;5094472;28;19904;-75
2020/12/11 05:10:45;;;;;;;;;;;6.70;99.90;;;;;;5094244;28;19995;-74
2020/12/11 05:13:21;;;;;;;;;;;6.70;99.90;;;;;;5094639;28;20073;-75
2020/12/11 05:16:05;;;;;;;;;;;6.80;99.90;;;;;;5094076;28;20003;-75
2020/12/11 05:18:30;;;;;;;;;;;6.70;99.90;;;;;;5091853;28;19904;-75
2020/12/11 05:21:12;;;;;;;;;;;6.80;99.90;;;;;;5096211;28;19911;-75
2020/12/11 05:23:52;;;;;;;;;;;6.90;99.90;;;;;;5108670;28;19911;-74
2020/12/11 05:26:18;;;;;;;;;;;6.80;99.90;;;;;;5102196;28;20494;-74
2020/12/11 05:28:44;;;;;;;;;;;6.80;99.90;;;;;;5090738;28;20135;-74
2020/12/11 05:31:10;;;;;;;;;;;6.90;99.90;;;;;;5105023;28;19907;-74
2020/12/11 05:33:36;;;;;;;;;;;6.80;99.90;;;;;;5106444;28;19927;-73
2020/12/11 05:36:01;;;;;;;;;;;6.90;99.90;;;;;;5108058;28;19907;-74
2020/12/11 05:38:27;;;;;;;;;;;6.90;99.90;;;;;;5109008;28;19926;-74
2020/12/11 05:40:54;;;;;;;;;;;6.80;99.90;;;;;;5105786;28;19908;-74
2020/12/11 05:43:23;;;;;;;;;;;7.00;99.90;;;;;;5106413;28;20290;-74
2020/12/11 05:45:55;;;;;;;;;;;7.00;99.90;;;;;;5104089;28;19971;-73
2020/12/11 05:48:23;;;;;;;;;;;7.00;99.90;;;;;;5105665;28;20425;-74
2020/12/11 05:50:48;;;;;;;;;;;7.00;99.90;;;;;;5105926;28;20347;-73
2020/12/11 05:53:14;;;;;;;;;;;7.10;99.90;;;;;;5107472;28;20008;-73
2020/12/11 05:55:40;;;;;;;;;;;6.90;99.90;;;;;;5104011;28;19908;-73
2020/12/11 05:58:07;;;;;;;;;;;6.90;99.90;;;;;;5108531;28;19964;-74
2020/12/11 06:00:32;;;;;;;;;;;7.00;99.90;;;;;;5101996;28;19919;-75
2020/12/11 06:02:59;;;;;;;;;;;7.00;99.90;;;;;;5096099;28;19960;-75
2020/12/11 06:05:24;;;;;;;;;;;7.00;99.90;;;;;;5095381;28;19911;-74
2020/12/11 06:07:51;;;;;;;;;;;6.90;99.90;;;;;;5107042;28;19911;-75
2020/12/11 06:10:18;;;;;;;;;;;6.80;99.90;;;;;;5103064;28;19908;-75
2020/12/11 06:12:43;;;;;;;;;;;6.90;99.90;;;;;;5106816;28;19915;-74
2020/12/11 06:15:12;;;;;;;;;;;6.80;99.90;;;;;;5107269;28;19908;-74
2020/12/11 06:18:01;;;;;;;;;;;6.70;99.90;;;;;;5110146;28;19916;-75
2020/12/11 06:20:28;;;;;;;;;;;6.70;99.90;;;;;;5069403;28;19908;-75
2020/12/11 06:22:53;;;;;;;;;;;6.70;99.90;;;;;;5111681;28;19933;-75
2020/12/11 06:25:31;;;;;;;;;;;6.70;99.90;;;;;;5107153;28;19995;-77
2020/12/11 06:27:58;;;;;;;;;;;7.50;99.90;;;;;;5074311;28;19918;-72
2020/12/11 06:30:25;;;;;;;;;;;7.00;99.90;;;;;;5083086;27;19972;-72
2020/12/11 06:32:50;;;;;;;;;;;6.80;99.90;;;;;;5084783;28;19965;-73
2020/12/11 06:35:16;;;;;;;;;;;6.60;99.90;;;;;;5106607;28;19908;-72
2020/12/11 06:37:41;;;;;;;;;;;6.60;99.90;;;;;;5100647;28;19907;-72
2020/12/11 06:40:08;;;;;;;;;;;6.60;99.90;;;;;;5093912;28;19912;-73
2020/12/11 06:42:36;;;;;;;;;;;6.70;99.90;;;;;;5100616;28;19971;-73
2020/12/11 06:45:20;;;;;;;;;;;6.70;99.90;;;;;;5106538;28;20272;-72
2020/12/11 06:47:52;;;;;;;;;;;6.60;99.90;;;;;;5100485;28;20361;-73
2020/12/11 06:50:18;;;;;;;;;;;6.60;99.90;;;;;;5093568;28;20324;-72
2020/12/11 06:52:44;;;;;;;;;;;6.50;99.90;;;;;;5106476;28;20459;-73
2020/12/11 06:55:10;;;;;;;;;;;6.60;99.90;;;;;;5107201;28;19908;-73
2020/12/11 06:57:37;;;;;;;;;;;6.60;99.90;;;;;;5107133;28;20111;-72
2020/12/11 07:00:22;;;;;;;;;;;6.60;99.90;;;;;;5108784;28;20477;-72
2020/12/11 07:02:47;;;;;;;;;;;6.60;99.90;;;;;;5109026;28;20485;-72
2020/12/11 07:05:13;;;;;;;;;;;6.50;99.90;;;;;;5109531;28;19986;-72
2020/12/11 07:07:38;;;;;;;;;;;6.50;99.90;;;;;;5107884;28;19944;-72
2020/12/11 07:10:05;;;;;;;;;;;6.60;99.90;;;;;;5107415;28;20351;-72
2020/12/11 07:12:33;;;;;;;;;;;6.60;99.90;;;;;;5110361;28;20366;-72
2020/12/11 07:14:59;;;;;;;;;;;6.60;99.90;;;;;;5106006;28;19915;-72
2020/12/11 07:17:25;;;;;;;;;;;6.60;99.90;;;;;;5089629;28;19907;-72
2020/12/11 07:19:50;;;;;;;;;;;6.60;99.90;;;;;;5107727;28;19943;-74
2020/12/11 07:22:18;;;;;;;;;;;6.50;99.90;;;;;;5108701;28;19904;-74
2020/12/11 07:24:44;;;;;;;;;;;6.60;99.90;;;;;;5088522;28;19939;-73
2020/12/11 07:27:09;;;;;;;;;;;6.60;99.90;;;;;;5098966;28;20369;-73
2020/12/11 07:29:35;;;;;;;;;;;6.60;99.90;;;;;;5089162;28;19904;-73
2020/12/11 07:32:01;;;;;;;;;;;6.50;99.90;;;;;;5105903;27;19912;-74
2020/12/11 07:34:27;;;;;;;;;;;6.60;99.90;;;;;;5090377;28;19911;-73
2020/12/11 07:36:55;;;;;;;;;;;6.60;99.90;;;;;;5099075;28;20371;-74
2020/12/11 07:39:21;;;;;;;;;;;6.60;99.90;;;;;;5111357;28;19968;-74
2020/12/11 07:41:48;;;;;;;;;;;6.60;99.90;;;;;;5102264;28;19939;-74
2020/12/11 07:44:29;;;;;;;;;;;6.70;99.90;;;;;;5090537;28;20023;-73
2020/12/11 07:46:56;;;;;;;;;;;6.70;99.90;;;;;;5099542;28;19912;-74
2020/12/11 07:49:32;;;;;;;;;;;6.80;99.90;;;;;;5111052;28;20433;-74
2020/12/11 07:51:58;;;;;;;;;;;6.90;99.90;;;;;;5099564;28;19913;-74
2020/12/11 07:54:32;;;;;;;;;;;6.80;99.90;;;;;;5091592;28;19923;-73
2020/12/11 07:57:06;;;;;;;;;;;6.80;99.90;;;;;;5101717;28;19904;-73
2020/12/11 07:59:32;;;;;;;;;;;6.70;99.90;;;;;;5072342;28;20440;-73
2020/12/11 08:01:57;;;;;;;;;;;6.90;99.90;;;;;;5101791;28;19943;-74
2020/12/11 08:04:23;;;;;;;;;;;7.00;99.90;;;;;;5090201;28;19996;-73
2020/12/11 08:06:58;;;;;;;;;;;7.00;99.90;;;;;;5089004;28;19908;-73
2020/12/11 08:09:28;;;;;;;;;;;7.00;99.90;;;;;;5089951;28;20431;-73
2020/12/11 08:11:54;;;;;;;;;;;7.00;99.90;;;;;;5102369;28;20239;-72
2020/12/11 08:14:19;;;;;;;;;;;7.00;99.90;;;;;;5109210;28;19996;-73
2020/12/11 08:16:47;;;;;;;;;;;7.20;99.90;;;;;;5103309;28;20380;-74
2020/12/11 08:19:13;;;;;;;;;;;7.20;99.90;;;;;;5089321;28;19908;-75
2020/12/11 08:21:38;;;;;;;;;;;7.30;99.90;;;;;;5082267;28;20292;-74
2020/12/11 08:24:04;;;;;;;;;;;7.30;99.90;;;;;;5088995;28;20256;-74
2020/12/11 08:26:36;;;;;;;;;;;7.30;99.90;;;;;;5096551;28;19919;-75
2020/12/11 08:29:06;;;;;;;;;;;7.30;99.90;;;;;;5083582;28;19914;-73
2020/12/11 08:31:39;;;;;;;;;;;7.50;99.90;;;;;;5107029;27;20332;-75
2020/12/11 08:34:12;;;;;;;;;;;7.90;99.90;;;;;;5107789;28;19998;-72
2020/12/11 08:36:39;;;;;;;;;;;8.00;99.90;;;;;;5102997;28;20013;-72
2020/12/11 08:39:09;;;;;;;;;;;7.90;99.90;;;;;;5094156;28;19908;-69
2020/12/11 08:41:39;;;;;;;;;;;7.70;99.90;;;;;;5101545;28;19923;-70
2020/12/11 08:44:10;;;;;;;;;;;7.70;99.90;;;;;;5105370;28;19926;-70
2020/12/11 08:46:55;;;;;;;;;;;7.80;99.90;;;;;;5102769;28;19908;-70
2020/12/11 08:49:28;;;;;;;;;;;7.80;99.90;;;;;;5100226;28;19998;-71
2020/12/11 08:51:54;;;;;;;;;;;8.00;99.90;;;;;;5097044;28;19931;-70
2020/12/11 08:54:26;;;;;;;;;;;8.30;99.90;;;;;;5108952;28;19934;-70
2020/12/11 08:56:52;;;;;;;;;;;8.50;99.90;;;;;;5100155;28;19912;-71
2020/12/11 08:59:17;;;;;;;;;;;8.50;99.90;;;;;;5088347;28;19926;-70
2020/12/11 09:01:43;;;;;;;;;;;8.60;99.90;;;;;;5100967;28;20025;-71
2020/12/11 09:04:09;;;;;;;;;;;8.60;99.90;;;;;;5108394;28;20416;-70
2020/12/11 09:06:35;;;;;;;;;;;8.70;99.90;;;;;;5106038;28;20002;-70
2020/12/11 09:09:01;;;;;;;;;;;8.70;99.90;;;;;;5088330;28;19957;-70
2020/12/11 09:11:27;;;;;;;;;;;8.60;99.90;;;;;;5099507;28;19954;-76
2020/12/11 09:13:52;;;;;;;;;;;8.70;99.90;;;;;;5105881;28;19943;-69
2020/12/11 09:16:18;;;;;;;;;;;8.90;99.90;;;;;;5102538;28;20265;-73
2020/12/11 09:18:44;;;;;;;;;;;8.90;99.90;;;;;;5072261;28;19998;-68
2020/12/11 09:21:09;;;;;;;;;;;8.80;99.90;;;;;;5096557;28;19907;-68
2020/12/11 09:23:35;;;;;;;;;;;8.90;99.90;;;;;;5091823;28;20061;-69
2020/12/11 09:26:00;;;;;;;;;;;9.00;99.90;;;;;;5095417;28;19918;-68
2020/12/11 09:28:26;;;;;;;;;;;9.20;99.90;;;;;;5092873;28;19924;-70
2020/12/11 09:30:52;;;;;;;;;;;9.20;99.90;;;;;;5099076;28;20007;-68
2020/12/11 09:33:21;;;;;;;;;;;9.40;99.90;;;;;;5094022;28;20006;-68
2020/12/11 09:35:47;;;;;;;;;;;9.40;99.90;;;;;;5093292;28;19991;-69
2020/12/11 09:38:13;;;;;;;;;;;9.60;99.90;;;;;;5105616;28;20002;-68
2020/12/11 09:48:46;;;;;;;;;;;10.10;99.90;;;;;;5095993;28;19904;-70
2020/12/11 09:53:42;;;;;;;;;;;10.70;99.90;;;;;;5097675;28;19919;-69
2020/12/11 09:56:09;;;;;;;;;;;10.70;99.90;;;;;;5100076;28;19914;-70
2020/12/11 09:58:37;;;;;;;;;;;10.90;99.90;;;;;;5095360;28;20488;-69
2020/12/11 10:01:06;;;;;;;;;;;11.00;99.90;;;;;;5081168;28;19908;-68
2020/12/11 10:03:35;;;;;;;;;;;11.10;99.90;;;;;;5095637;28;19957;-68
2020/12/11 10:06:01;;;;;;;;;;;11.30;99.90;;;;;;5098303;28;20283;-70
2020/12/11 10:08:26;;;;;;;;;;;11.40;99.90;;;;;;5112287;28;19904;-70
2020/12/11 10:10:52;;;;;;;;;;;11.70;99.90;;;;;;5105571;28;20021;-70
2020/12/11 10:13:18;;;;;;;;;;;12.00;99.90;;;;;;5097649;28;19916;-70
2020/12/11 10:15:44;;;;;;;;;;;12.60;99.90;;;;;;5095891;28;20277;-69
2020/12/11 10:18:09;;;;;;;;;;;12.70;99.90;;;;;;5098735;28;19904;-69
2020/12/11 10:20:35;;;;;;;;;;;13.10;99.90;;;;;;5095014;28;19911;-69
2020/12/11 10:23:01;;;;;;;;;;;13.20;99.90;;;;;;5112059;28;19967;-67
2020/12/11 10:25:26;;;;;;;;;;;13.30;99.90;;;;;;5106004;28;19966;-68
2020/12/11 10:27:52;;;;;;;;;;;13.20;99.90;;;;;;5100893;28;19919;-71
2020/12/11 10:30:18;;;;;;;;;;;13.40;99.90;;;;;;5111386;27;20615;-73
2020/12/11 10:32:43;;;;;;;;;;;13.60;99.90;;;;;;5103423;27;19919;-72
2020/12/11 10:35:09;;;;;;;;;;;13.90;99.90;;;;;;5093700;28;20359;-73
2020/12/11 10:37:34;;;;;;;;;;;13.90;99.90;;;;;;5100805;28;19907;-71
2020/12/11 10:40:02;;;;;;;;;;;14.10;99.90;;;;;;5094312;28;20394;-72
2020/12/11 10:42:28;;;;;;;;;;;14.20;99.90;;;;;;5100204;28;19991;-73
2020/12/11 10:44:53;;;;;;;;;;;14.30;99.90;;;;;;5094439;28;20002;-72
2020/12/11 10:47:19;;;;;;;;;;;14.50;99.90;;;;;;5109593;28;20002;-72
2020/12/11 10:49:44;;;;;;;;;;;14.60;99.90;;;;;;5107385;28;20394;-72
2020/12/11 10:52:10;;;;;;;;;;;14.60;99.90;;;;;;5103130;28;19969;-72
2020/12/11 10:54:35;;;;;;;;;;;14.70;99.90;;;;;;5109234;28;19972;-72
2020/12/11 10:57:01;;;;;;;;;;;14.60;99.90;;;;;;5100996;28;19939;-72
2020/12/11 10:59:26;;;;;;;;;;;14.60;99.90;;;;;;5088754;28;19919;-72
2020/12/11 11:01:52;;;;;;;;;;;14.50;99.90;;;;;;5100371;28;19907;-73
2020/12/11 11:04:18;;;;;;;;;;;14.50;99.90;;;;;;5089133;28;19951;-73
2020/12/11 11:06:48;;;;;;;;;;;14.60;99.90;;;;;;5101205;28;19912;-72
2020/12/11 11:11:46;;;;;;;;;;;14.90;99.90;;;;;;5102363;28;19960;-74
2020/12/11 11:17:07;;;;;;;;;;;15.20;99.90;;;;;;5101905;28;20260;-72
2020/12/11 11:27:19;;;;;;;;;;;14.50;99.90;;;;;;5096840;28;19987;-72
2020/12/11 11:29:44;;;;;;;;;;;15.00;99.90;;;;;;5107444;28;19939;-72
2020/12/11 11:32:10;;;;;;;;;;;15.40;99.90;;;;;;5106304;28;20483;-73
2020/12/11 11:34:35;;;;;;;;;;;15.10;99.90;;;;;;5089761;28;20014;-72
2020/12/11 11:37:01;;;;;;;;;;;15.10;99.90;;;;;;5100888;28;19911;-73
2020/12/11 11:39:26;;;;;;;;;;;14.80;99.90;;;;;;5089662;28;20216;-73
2020/12/11 11:41:55;;;;;;;;;;;14.70;99.90;;;;;;5104638;28;19908;-71
2020/12/11 11:46:47;;;;;;;;;;;14.40;99.90;;;;;;5104591;28;20335;-74
2020/12/11 11:49:16;;;;;;;;;;;14.30;99.90;;;;;;5110445;28;19923;-72
2020/12/11 11:52:11;;;;;;;;;;;14.30;99.90;;;;;;5104375;28;20411;-72
2020/12/11 11:54:30;;;;;;;;;;;14.20;99.90;;;;;;5108179;28;19996;-73
2020/12/11 11:56:58;;;;;;;;;;;14.20;99.90;;;;;;5096973;28;19984;-72
2020/12/11 11:59:24;;;;;;;;;;;14.30;99.90;;;;;;5090082;28;20295;-75
2020/12/11 12:01:52;;;;;;;;;;;14.20;99.90;;;;;;5102828;28;19916;-75
2020/12/11 12:04:18;;;;;;;;;;;14.20;99.90;;;;;;5091100;28;19911;-75
2020/12/11 12:06:43;;;;;;;;;;;14.10;99.90;;;;;;5088065;28;19936;-74
2020/12/11 12:09:09;;;;;;;;;;;14.00;99.90;;;;;;5105994;28;19923;-74
2020/12/11 12:11:34;;;;;;;;;;;14.00;99.90;;;;;;5105071;28;19912;-72
2020/12/11 12:14:00;;;;;;;;;;;13.80;99.90;;;;;;5106584;28;19916;-74
2020/12/11 12:16:25;;;;;;;;;;;13.90;99.90;;;;;;5103420;28;19932;-77
2020/12/11 12:18:54;;;;;;;;;;;13.80;99.90;;;;;;5072662;28;19995;-72
2020/12/11 12:22:46;;;;;;;;;;;13.80;99.90;;;;;;5098592;28;19911;-77
2020/12/11 12:29:34;;;;;;;;;;;13.70;99.90;;;;;;5108392;28;19915;-74
2020/12/11 12:32:23;;;;;;;;;;;13.70;99.90;;;;;;5106499;27;19912;-75
2020/12/11 12:35:26;;;;;;;;;;;13.50;99.90;;;;;;5103319;28;20003;-75
2020/12/11 12:42:43;;;;;;;;;;;13.10;99.90;;;;;;5097825;28;20073;-75
2020/12/11 12:45:09;;;;;;;;;;;13.10;99.90;;;;;;5090958;28;19915;-75
2020/12/11 12:47:35;;;;;;;;;;;12.90;99.90;;;;;;5099587;28;20315;-75
2020/12/11 12:50:01;;;;;;;;;;;13.00;99.90;;;;;;5105254;28;20360;-77
2020/12/11 12:52:27;;;;;;;;;;;12.90;99.90;;;;;;5096996;28;19911;-76
2020/12/11 12:54:52;;;;;;;;;;;12.80;99.90;;;;;;5089625;28;19907;-76
2020/12/11 12:57:27;;;;;;;;;;;12.70;99.90;;;;;;5098463;28;20148;-76
2020/12/11 13:00:56;;;;;;;;;;;12.70;99.90;;;;;;5090128;28;19904;-76
2020/12/11 13:05:31;;;;;;;;;;;12.60;99.90;;;;;;5090330;28;19908;-76
2020/12/11 13:07:57;;;;;;;;;;;12.50;99.90;;;;;;5097420;28;20014;-76
2020/12/11 13:10:22;;;;;;;;;;;12.50;99.90;;;;;;5091291;28;19904;-77
2020/12/11 13:12:49;;;;;;;;;;;12.50;99.90;;;;;;5097703;28;20285;-75
2020/12/11 13:15:15;;;;;;;;;;;12.50;99.90;;;;;;5090956;28;19919;-75
2020/12/11 13:17:40;;;;;;;;;;;12.50;99.90;;;;;;5097716;28;20332;-75
2020/12/11 13:20:09;;;;;;;;;;;12.50;99.90;;;;;;5091080;28;19904;-75
2020/12/11 13:26:18;;;;;;;;;;;12.50;99.90;;;;;;5096989;28;20453;-74
2020/12/11 13:28:05;;;;;;;;;;;12.40;99.90;;;;;;5077940;28;19915;-75
2020/12/11 13:30:31;;;;;;;;;;;12.50;99.90;;;;;;5094535;28;19911;-75
2020/12/11 13:32:56;;;;;;;;;;;12.50;99.90;;;;;;5104163;28;20052;-75
2020/12/11 13:35:22;;;;;;;;;;;12.60;99.90;;;;;;5104867;28;19999;-74
2020/12/11 13:37:47;;;;;;;;;;;12.60;99.90;;;;;;5107525;28;19908;-75
2020/12/11 13:40:13;;;;;;;;;;;12.50;99.90;;;;;;5095362;28;19904;-75
2020/12/11 13:42:38;;;;;;;;;;;12.60;99.90;;;;;;5103188;28;19925;-75
2020/12/11 13:45:04;;;;;;;;;;;12.60;99.90;;;;;;5105669;28;20328;-74
2020/12/11 13:47:29;;;;;;;;;;;12.60;99.90;;;;;;5107510;28;19908;-76
2020/12/11 13:49:55;;;;;;;;;;;12.70;99.90;;;;;;5105566;28;20325;-76
2020/12/11 13:52:20;;;;;;;;;;;12.80;99.90;;;;;;5101296;28;19919;-73
2020/12/11 13:54:46;;;;;;;;;;;12.90;99.90;;;;;;5084169;28;19964;-74
2020/12/11 13:57:11;;;;;;;;;;;13.00;99.90;;;;;;5083948;28;19915;-75
2020/12/11 13:59:37;;;;;;;;;;;13.00;99.90;;;;;;5106219;28;19904;-75
2020/12/11 14:02:03;;;;;;;;;;;12.90;99.90;;;;;;5104781;28;20357;-74
2020/12/11 14:04:28;;;;;;;;;;;12.90;99.90;;;;;;5104356;28;19956;-75
2020/12/11 14:06:54;;;;;;;;;;;13.00;99.90;;;;;;5104616;28;20010;-74
2020/12/11 14:09:19;;;;;;;;;;;13.00;99.90;;;;;;5108005;28;19903;-74
2020/12/11 14:11:45;;;;;;;;;;;12.90;99.90;;;;;;5104295;28;19907;-74
2020/12/11 14:14:11;;;;;;;;;;;12.90;99.90;;;;;;5088995;28;19954;-73
2020/12/11 14:16:43;;;;;;;;;;;13.00;99.90;;;;;;5088666;28;20394;-74
2020/12/11 14:24:07;;;;;;;;;;;13.00;99.90;;;;;;5089560;28;20014;-75
2020/12/11 14:26:32;;;;;;;;;;;12.90;99.90;;;;;;5087469;28;19908;-74
2020/12/11 14:28:58;;;;;;;;;;;12.90;99.90;;;;;;5086820;28;19995;-75
2020/12/11 14:31:24;;;;;;;;;;;12.90;99.90;;;;;;5101935;28;19908;-75
2020/12/11 14:33:49;;;;;;;;;;;12.90;99.90;;;;;;5088214;28;19912;-74
2020/12/11 14:36:16;;;;;;;;;;;13.00;99.90;;;;;;5095920;28;19914;-74
2020/12/11 14:41:07;;;;;;;;;;;12.80;99.90;;;;;;5108841;28;20002;-74
2020/12/11 14:43:33;;;;;;;;;;;12.90;99.90;;;;;;5095619;28;20055;-75
2020/12/11 14:46:02;;;;;;;;;;;12.80;99.90;;;;;;5097385;28;20369;-75
2020/12/11 14:48:28;;;;;;;;;;;12.90;99.90;;;;;;5078119;28;19942;-74
2020/12/11 14:50:53;;;;;;;;;;;12.80;99.90;;;;;;5096462;28;19908;-74
2020/12/11 14:53:19;;;;;;;;;;;12.70;99.90;;;;;;5097633;28;20046;-75
2020/12/11 14:55:45;;;;;;;;;;;12.80;99.90;;;;;;5094768;28;19927;-73
2020/12/11 14:58:10;;;;;;;;;;;12.70;99.90;;;;;;5106403;28;19992;-73
2020/12/11 15:00:36;;;;;;;;;;;12.60;99.90;;;;;;5112571;27;19976;-73
2020/12/11 15:03:01;;;;;;;;;;;12.80;99.90;;;;;;5112427;27;19912;-73
2020/12/11 15:05:27;;;;;;;;;;;12.80;99.90;;;;;;5108890;28;20397;-75
2020/12/11 15:07:54;;;;;;;;;;;12.70;99.90;;;;;;5107215;28;19960;-74
2020/12/11 15:10:19;;;;;;;;;;;12.90;99.90;;;;;;5091601;28;19927;-74
2020/12/11 15:12:45;;;;;;;;;;;12.90;99.90;;;;;;5110644;28;19945;-74
2020/12/11 15:15:11;;;;;;;;;;;12.80;99.90;;;;;;5105811;28;19908;-74